Time;durP1;ratioP1;P1;durP2;ratioP2;P2;SDS_P1;SDS_P2;PMS_P1;PMS_P2;Temp;Humidity;BMP_temperature;BMP_pressure;BME280_temperature;BME280_humidity;BME280_pressure;Samples;Min_cycle;Max_cycle;Signal;HPM_P1;HPM_P2
2021/04/23 00:01:48;;;;;;;11.90;5.78;;;8.70;80.60;;;;;;5032494;28;20029;-83
2021/04/23 00:04:14;;;;;;;14.90;6.55;;;8.80;80.30;;;;;;5030674;28;20049;-83
2021/04/23 00:06:48;;;;;;;15.80;6.28;;;8.80;80.50;;;;;;5030014;28;20378;-84
2021/04/23 00:09:22;;;;;;;12.68;5.65;;;8.90;80.30;;;;;;5031154;28;20367;-82
2021/04/23 00:12:12;;;;;;;13.60;5.95;;;9.10;79.80;;;;;;5030556;28;20041;-82
2021/04/23 00:14:46;;;;;;;13.40;5.97;;;9.10;79.50;;;;;;5030429;28;20327;-83
2021/04/23 00:17:12;;;;;;;23.17;5.93;;;8.90;80.60;;;;;;5030855;28;20017;-83
2021/04/23 00:19:38;;;;;;;19.40;5.50;;;8.90;81.10;;;;;;5032045;28;20022;-83
2021/04/23 00:22:06;;;;;;;15.80;6.25;;;8.90;81.10;;;;;;5030396;28;20156;-82
2021/04/23 00:24:36;;;;;;;20.75;7.15;;;8.90;80.80;;;;;;5030333;28;20037;-82
2021/04/23 00:27:03;;;;;;;18.77;5.82;;;8.80;81.10;;;;;;5029894;28;20026;-82
2021/04/23 00:29:29;;;;;;;13.68;5.20;;;8.90;81.10;;;;;;5030239;28;20053;-82
2021/04/23 00:34:40;;;;;;;14.50;5.70;;;8.90;81.30;;;;;;5030415;28;20144;-81
2021/04/23 00:37:07;;;;;;;17.40;6.18;;;9.00;80.80;;;;;;5030458;28;20029;-83
2021/04/23 00:39:34;;;;;;;18.38;5.43;;;9.00;80.60;;;;;;5030199;28;20049;-83
2021/04/23 00:42:00;;;;;;;17.98;6.43;;;9.00;81.10;;;;;;5029968;28;20052;-83
2021/04/23 00:44:26;;;;;;;15.50;5.72;;;8.90;81.30;;;;;;5029648;28;20360;-82
2021/04/23 00:46:52;;;;;;;18.25;6.15;;;8.80;81.90;;;;;;5031355;28;20025;-83
2021/04/23 00:49:18;;;;;;;22.92;6.75;;;8.90;81.60;;;;;;5029592;28;20041;-83
2021/04/23 00:51:52;;;;;;;14.70;5.97;;;8.90;81.40;;;;;;5029785;28;20044;-82
2021/04/23 00:54:18;;;;;;;18.77;7.15;;;9.00;81.50;;;;;;5028911;28;20037;-81
2021/04/23 00:56:44;;;;;;;21.42;6.40;;;8.90;81.90;;;;;;5030068;28;20411;-79
2021/04/23 00:59:12;;;;;;;16.25;6.50;;;8.70;82.70;;;;;;5028472;28;20021;-78
2021/04/23 01:01:45;;;;;;;18.70;5.63;;;8.90;82.50;;;;;;5031451;28;20017;-81
2021/04/23 01:04:18;;;;;;;18.85;6.72;;;9.00;82.00;;;;;;5029443;28;20419;-83
2021/04/23 01:06:46;;;;;;;20.60;5.90;;;8.90;82.00;;;;;;5028479;28;20505;-83
2021/04/23 01:09:15;;;;;;;21.63;6.57;;;9.00;81.80;;;;;;5029357;28;20118;-83
2021/04/23 01:11:41;;;;;;;19.30;5.43;;;8.80;82.70;;;;;;5029253;28;20025;-81
2021/04/23 01:14:08;;;;;;;24.40;6.55;;;9.00;82.40;;;;;;5031115;28;20066;-82
2021/04/23 01:16:34;;;;;;;18.73;6.60;;;8.90;82.70;;;;;;5029986;28;20037;-81
2021/04/23 01:19:02;;;;;;;18.92;6.57;;;8.90;82.80;;;;;;5029193;28;20376;-82
2021/04/23 01:21:31;;;;;;;18.80;5.93;;;9.10;82.60;;;;;;5029089;28;20041;-82
2021/04/23 01:24:00;;;;;;;21.00;6.15;;;9.10;82.50;;;;;;5029207;28;20119;-82
2021/04/23 01:26:29;;;;;;;13.18;6.45;;;9.20;82.00;;;;;;5029121;28;20032;-82
2021/04/23 01:28:55;;;;;;;18.10;6.88;;;9.10;82.20;;;;;;5029768;28;20030;-82
2021/04/23 01:31:26;;;;;;;12.90;6.28;;;9.00;82.20;;;;;;5029220;28;20102;-82
2021/04/23 01:33:56;;;;;;;24.17;6.13;;;9.00;82.70;;;;;;5028522;28;20087;-83
2021/04/23 01:36:22;;;;;;;18.88;5.70;;;9.00;82.80;;;;;;5028980;28;20370;-82
2021/04/23 01:38:49;;;;;;;13.43;5.78;;;8.90;82.90;;;;;;5028271;28;20069;-82
2021/04/23 01:41:15;;;;;;;13.02;5.50;;;9.00;82.90;;;;;;5029312;28;20026;-82
2021/04/23 01:43:42;;;;;;;18.15;5.63;;;8.90;83.70;;;;;;5030506;28;20470;-84
2021/04/23 01:46:09;;;;;;;18.02;6.38;;;8.80;84.50;;;;;;5027945;28;20034;-81
2021/04/23 01:48:35;;;;;;;18.60;5.85;;;8.80;84.10;;;;;;5028981;28;20417;-81
2021/04/23 01:51:04;;;;;;;21.33;6.43;;;8.60;84.90;;;;;;5028807;28;20328;-80
2021/04/23 01:53:31;;;;;;;14.88;5.95;;;8.70;84.70;;;;;;5027600;28;20045;-81
2021/04/23 01:55:57;;;;;;;20.33;6.43;;;8.90;84.50;;;;;;5030400;28;20109;-81
2021/04/23 01:58:22;;;;;;;15.48;5.82;;;8.90;84.40;;;;;;5028723;28;20294;-80
2021/04/23 02:00:54;;;;;;;18.85;7.20;;;8.80;84.70;;;;;;5031124;28;20049;-79
2021/04/23 02:03:19;;;;;;;19.02;6.30;;;9.00;84.60;;;;;;5031461;28;20045;-81
2021/04/23 02:05:48;;;;;;;12.65;6.22;;;8.90;85.30;;;;;;5032756;28;20367;-82
2021/04/23 02:08:16;;;;;;;21.15;6.93;;;9.00;84.20;;;;;;5032884;28;20017;-80
2021/04/23 02:10:47;;;;;;;25.08;6.88;;;8.90;84.30;;;;;;5034370;28;20051;-81
2021/04/23 02:13:14;;;;;;;20.27;7.13;;;8.90;84.60;;;;;;5032544;28;20067;-82
2021/04/23 02:15:40;;;;;;;18.75;6.78;;;8.80;85.10;;;;;;5032626;28;20203;-81
2021/04/23 02:18:06;;;;;;;22.92;6.80;;;8.90;84.70;;;;;;5032775;28;20037;-82
2021/04/23 02:20:34;;;;;;;22.33;6.80;;;8.90;85.00;;;;;;5032681;28;20033;-81
2021/04/23 02:23:03;;;;;;;19.60;6.70;;;8.90;85.10;;;;;;5033782;28;20046;-81
2021/04/23 02:25:30;;;;;;;18.98;6.50;;;8.80;85.50;;;;;;5032100;28;20041;-81
2021/04/23 02:27:56;;;;;;;17.92;5.97;;;8.70;85.70;;;;;;5032437;28;20046;-81
2021/04/23 02:30:27;;;;;;;23.73;6.72;;;8.70;85.90;;;;;;5030924;28;20096;-80
2021/04/23 02:32:53;;;;;;;17.27;6.53;;;8.80;85.70;;;;;;5031241;28;20032;-81
2021/04/23 02:35:20;;;;;;;13.52;6.40;;;8.90;85.80;;;;;;5032828;28;20037;-82
2021/04/23 02:37:46;;;;;;;21.13;7.35;;;8.80;85.70;;;;;;5034580;28;20277;-82
2021/04/23 02:40:15;;;;;;;15.77;6.10;;;8.90;86.00;;;;;;5032777;28;20081;-81
2021/04/23 02:42:42;;;;;;;19.35;6.60;;;8.70;86.60;;;;;;5032363;28;20354;-81
2021/04/23 02:45:11;;;;;;;18.13;6.70;;;8.70;87.30;;;;;;5032225;28;20128;-82
2021/04/23 02:47:37;;;;;;;14.48;6.38;;;8.70;86.40;;;;;;5031951;28;20053;-81
2021/04/23 02:50:05;;;;;;;24.38;6.82;;;8.70;86.80;;;;;;5032682;28;20072;-81
2021/04/23 02:52:33;;;;;;;17.88;7.00;;;8.80;86.60;;;;;;5030771;28;20368;-80
2021/04/23 02:54:59;;;;;;;20.08;6.30;;;8.80;86.20;;;;;;5031982;28;20049;-81
2021/04/23 02:57:25;;;;;;;19.60;6.13;;;8.70;86.50;;;;;;5031302;28;20060;-84
2021/04/23 02:59:50;;;;;;;12.88;6.22;;;8.80;86.90;;;;;;5031105;28;20422;-83
2021/04/23 03:02:16;;;;;;;23.63;6.85;;;8.80;86.80;;;;;;5032376;28;20108;-83
2021/04/23 03:04:43;;;;;;;19.80;6.07;;;8.70;87.10;;;;;;5033700;28;20025;-83
2021/04/23 03:07:08;;;;;;;19.98;6.15;;;8.70;87.10;;;;;;5031941;28;20142;-83
2021/04/23 03:09:34;;;;;;;23.75;7.05;;;8.70;87.40;;;;;;5030561;28;20475;-81
2021/04/23 03:12:00;;;;;;;17.05;7.00;;;8.70;87.40;;;;;;5030980;28;20045;-79
2021/04/23 03:14:26;;;;;;;20.67;6.82;;;8.70;87.20;;;;;;5031680;28;20072;-81
2021/04/23 03:16:54;;;;;;;18.83;6.80;;;8.50;88.10;;;;;;5033164;28;20021;-82
2021/04/23 03:19:22;;;;;;;24.50;6.78;;;8.40;88.90;;;;;;5031461;28;20459;-81
2021/04/23 03:21:49;;;;;;;20.40;7.15;;;8.60;88.60;;;;;;5031693;28;20121;-81
2021/04/23 03:24:17;;;;;;;17.90;6.93;;;8.50;88.80;;;;;;5030236;28;20059;-81
2021/04/23 03:26:43;;;;;;;18.47;6.03;;;8.50;88.60;;;;;;5031375;28;20113;-80
2021/04/23 03:29:10;;;;;;;21.80;6.20;;;8.60;88.10;;;;;;5031273;28;20061;-80
2021/04/23 03:31:36;;;;;;;18.02;6.25;;;8.70;87.50;;;;;;5031919;28;20108;-80
2021/04/23 03:34:03;;;;;;;21.48;6.05;;;8.80;87.10;;;;;;5031453;28;20065;-81
2021/04/23 03:36:29;;;;;;;17.88;6.75;;;8.80;87.10;;;;;;5031113;28;20459;-80
2021/04/23 03:38:55;;;;;;;25.33;6.95;;;8.70;87.70;;;;;;5031129;28;20080;-80
2021/04/23 03:41:26;;;;;;;22.60;6.68;;;8.70;88.00;;;;;;5031181;28;20026;-80
2021/04/23 03:43:54;;;;;;;17.85;6.40;;;8.50;88.60;;;;;;5032215;28;20014;-80
2021/04/23 03:46:19;;;;;;;17.13;6.70;;;8.60;88.10;;;;;;5031352;28;20033;-81
2021/04/23 03:48:45;;;;;;;13.73;5.65;;;8.50;88.70;;;;;;5031036;28;20030;-80
2021/04/23 03:51:12;;;;;;;24.40;7.60;;;8.50;89.00;;;;;;5030689;28;20344;-80
2021/04/23 03:53:38;;;;;;;19.65;6.18;;;8.60;88.70;;;;;;5030678;28;20071;-80
2021/04/23 03:56:06;;;;;;;16.38;6.55;;;8.70;88.60;;;;;;5032187;28;20029;-80
2021/04/23 03:58:33;;;;;;;;;;;8.60;88.70;;;;;;5030116;28;20041;-81
2021/04/23 04:01:07;;;;;;;23.38;6.85;;;8.60;88.70;;;;;;5030741;28;19913;-81
2021/04/23 04:03:33;;;;;;;16.92;6.65;;;8.60;88.80;;;;;;5029023;28;20371;-79
2021/04/23 04:05:59;;;;;;;19.88;7.45;;;8.60;88.90;;;;;;5029588;28;20382;-81
2021/04/23 04:08:25;;;;;;;21.85;6.93;;;8.50;89.50;;;;;;5030408;28;20132;-82
2021/04/23 04:10:52;;;;;;;21.08;7.43;;;8.60;90.00;;;;;;5032102;28;20032;-81
2021/04/23 04:13:21;;;;;;;18.42;6.45;;;8.70;89.20;;;;;;5030727;28;20030;-83
2021/04/23 04:15:47;;;;;;;20.50;6.28;;;8.60;89.10;;;;;;5030521;28;20034;-81
2021/04/23 04:18:13;;;;;;;24.08;6.60;;;8.70;89.00;;;;;;5030519;28;20091;-82
2021/04/23 04:20:41;;;;;;;17.67;7.15;;;8.70;88.70;;;;;;5030574;28;20045;-82
2021/04/23 04:23:07;;;;;;;;;;;8.60;89.30;;;;;;5031637;28;20057;-82
2021/04/23 04:25:38;;;;;;;14.70;6.32;;;8.70;89.00;;;;;;5029757;28;19920;-83
2021/04/23 04:28:06;;;;;;;19.30;6.63;;;8.60;89.50;;;;;;5030730;28;20060;-84
2021/04/23 04:30:33;;;;;;;16.10;5.88;;;8.70;89.30;;;;;;5031176;28;20041;-83
2021/04/23 04:32:59;;;;;;;14.75;6.63;;;8.60;89.60;;;;;;5030891;28;20471;-85
2021/04/23 04:35:27;;;;;;;18.63;6.30;;;8.70;89.30;;;;;;5029455;28;20032;-82
2021/04/23 04:37:54;;;;;;;20.38;6.20;;;8.70;89.20;;;;;;5032073;28;20120;-83
2021/04/23 04:40:21;;;;;;;24.20;6.63;;;8.70;88.90;;;;;;5030104;28;20045;-84
2021/04/23 04:42:47;;;;;;;19.55;6.63;;;8.70;88.70;;;;;;5029619;28;20077;-85
2021/04/23 04:45:19;;;;;;;17.08;6.38;;;8.60;89.00;;;;;;5030358;28;20083;-84
2021/04/23 04:47:45;;;;;;;19.92;8.55;;;8.60;89.10;;;;;;5030234;28;20033;-84
2021/04/23 04:50:17;;;;;;;18.70;5.70;;;8.60;89.40;;;;;;5031509;28;20040;-85
2021/04/23 04:52:43;;;;;;;19.13;6.70;;;8.70;89.30;;;;;;5031308;28;20033;-84
2021/04/23 04:55:11;;;;;;;24.40;5.88;;;8.60;89.50;;;;;;5030888;28;20045;-84
2021/04/23 04:57:37;;;;;;;19.83;5.32;;;8.70;88.90;;;;;;5030926;28;20420;-85
2021/04/23 05:00:06;;;;;;;15.82;6.38;;;8.80;88.90;;;;;;5030272;28;20471;-85
2021/04/23 05:02:32;;;;;;;23.15;6.88;;;8.90;88.40;;;;;;5030533;28;20046;-84
2021/04/23 05:04:58;;;;;;;16.77;6.30;;;8.80;88.10;;;;;;5031829;28;20029;-84
2021/04/23 05:07:23;;;;;;;17.52;5.80;;;8.90;88.30;;;;;;5010434;28;20493;-82
2021/04/23 05:09:50;;;;;;;22.95;6.00;;;9.00;88.20;;;;;;5022729;28;20052;-82
2021/04/23 05:12:16;;;;;;;15.32;6.07;;;9.10;87.70;;;;;;5029480;28;20351;-82
2021/04/23 05:14:41;;;;;;;15.88;5.93;;;9.00;87.80;;;;;;5029435;28;20029;-84
2021/04/23 05:17:08;;;;;;;18.30;6.03;;;8.90;88.00;;;;;;5030996;28;20022;-85
2021/04/23 05:19:33;;;;;;;22.35;5.32;;;8.90;88.30;;;;;;5029598;28;20601;-83
2021/04/23 05:21:59;;;;;;;19.02;5.57;;;8.80;88.80;;;;;;5029543;28;20190;-83
2021/04/23 05:24:25;;;;;;;19.02;6.50;;;9.00;88.50;;;;;;5029213;28;20467;-83
2021/04/23 05:26:53;;;;;;;18.83;5.63;;;8.90;88.80;;;;;;5029108;28;20041;-84
2021/04/23 05:29:18;;;;;;;14.88;6.05;;;8.80;88.80;;;;;;5028987;28;20152;-82
2021/04/23 05:31:44;;;;;;;22.40;6.57;;;8.90;88.50;;;;;;5030290;28;20483;-84
2021/04/23 05:34:09;;;;;;;17.52;5.93;;;9.10;88.20;;;;;;5029505;28;20073;-85
2021/04/23 05:36:35;;;;;;;20.73;6.32;;;9.10;87.70;;;;;;5030846;28;20040;-84
2021/04/23 05:39:01;;;;;;;28.55;7.22;;;9.20;87.50;;;;;;5029308;28;20025;-85
2021/04/23 05:41:27;;;;;;;15.10;6.10;;;9.20;88.10;;;;;;5029105;28;20101;-80
2021/04/23 05:43:58;;;;;;;23.23;6.80;;;9.20;87.60;;;;;;5030723;28;20064;-83
2021/04/23 05:46:23;;;;;;;21.27;6.07;;;9.20;87.50;;;;;;5017935;28;20036;-86
2021/04/23 05:48:49;;;;;;;18.38;6.03;;;9.20;88.10;;;;;;5029387;28;20394;-82
2021/04/23 05:51:15;;;;;;;18.75;5.68;;;9.20;88.10;;;;;;5028536;28;20025;-82
2021/04/23 05:53:41;;;;;;;17.65;6.50;;;9.30;87.60;;;;;;5029364;28;20519;-85
2021/04/23 05:56:07;;;;;;;17.48;6.35;;;9.40;87.70;;;;;;5029813;28;20030;-83
2021/04/23 05:58:33;;;;;;;23.20;5.97;;;9.40;87.40;;;;;;5029462;28;20096;-81
2021/04/23 06:00:59;;;;;;;15.38;6.28;;;9.40;86.70;;;;;;5029085;28;20149;-79
2021/04/23 06:03:25;;;;;;;20.65;6.97;;;9.30;87.10;;;;;;5028339;28;20052;-83
2021/04/23 06:05:50;;;;;;;18.80;5.57;;;9.60;86.80;;;;;;5029155;28;20029;-80
2021/04/23 06:08:16;;;;;;;22.17;6.50;;;9.60;86.90;;;;;;5028236;28;20435;-81
2021/04/23 06:10:44;;;;;;;17.10;5.97;;;9.40;87.90;;;;;;5030612;28;20029;-84
2021/04/23 06:13:12;;;;;;;17.15;6.13;;;9.50;87.60;;;;;;5027057;28;20048;-81
2021/04/23 06:15:38;;;;;;;21.88;5.68;;;9.60;87.20;;;;;;5028680;28;20125;-82
2021/04/23 06:18:04;;;;;;;16.40;6.18;;;9.70;86.50;;;;;;5028991;28;20091;-82
2021/04/23 06:20:32;;;;;;;24.17;5.65;;;9.60;86.70;;;;;;5028749;28;20036;-82
2021/04/23 06:22:59;;;;;;;15.40;6.15;;;9.80;86.30;;;;;;5030706;28;20049;-87
2021/04/23 06:25:26;;;;;;;20.65;6.68;;;9.80;86.00;;;;;;5028732;28;20422;-87
2021/04/23 06:27:52;;;;;;;13.07;4.88;;;9.90;84.70;;;;;;5028611;28;20038;-84
2021/04/23 06:30:22;;;;;;;22.55;6.25;;;9.70;84.80;;;;;;5029017;28;20037;-79
2021/04/23 06:32:49;;;;;;;26.98;6.30;;;9.90;84.10;;;;;;5028220;28;20048;-77
2021/04/23 06:35:21;;;;;;;17.45;6.00;;;9.90;84.20;;;;;;5024463;28;20100;-79
2021/04/23 06:37:48;;;;;;;23.42;5.90;;;10.00;83.30;;;;;;5029114;28;20021;-78
2021/04/23 06:40:15;;;;;;;20.75;5.88;;;10.10;82.30;;;;;;5027334;28;20128;-77
2021/04/23 06:42:41;;;;;;;18.75;6.90;;;10.00;81.90;;;;;;5027927;28;20129;-77
2021/04/23 06:45:10;;;;;;;11.40;4.85;;;10.20;81.70;;;;;;5027897;28;20037;-80
2021/04/23 06:47:36;;;;;;;16.35;5.25;;;10.30;81.30;;;;;;5025978;28;20037;-79
2021/04/23 06:50:06;;;;;;;16.52;6.15;;;10.10;81.10;;;;;;5032096;28;20376;-81
2021/04/23 06:52:32;;;;;;;14.13;5.55;;;10.10;80.70;;;;;;5031893;28;20386;-80
2021/04/23 06:54:58;;;;;;;17.83;6.70;;;10.30;80.70;;;;;;5030671;28;20033;-82
2021/04/23 06:57:25;;;;;;;13.75;5.68;;;10.30;80.30;;;;;;5032391;28;20106;-83
2021/04/23 06:59:51;;;;;;;15.18;4.88;;;10.30;79.30;;;;;;5031745;28;20080;-82
2021/04/23 07:02:17;;;;;;;12.73;4.40;;;10.20;78.50;;;;;;5030686;28;20087;-83
2021/04/23 07:04:42;;;;;;;16.67;5.50;;;10.10;78.40;;;;;;5033617;28;20025;-83
2021/04/23 07:07:08;;;;;;;15.55;4.93;;;10.10;78.30;;;;;;5031463;28;20460;-83
2021/04/23 07:09:34;;;;;;;13.27;4.93;;;10.30;78.50;;;;;;5031651;28;20103;-84
2021/04/23 07:12:01;;;;;;;17.42;5.88;;;10.20;78.60;;;;;;5030609;28;20037;-82
2021/04/23 07:14:27;;;;;;;26.42;5.30;;;10.40;78.60;;;;;;5031321;28;20021;-82
2021/04/23 07:16:53;;;;;;;18.92;4.80;;;10.70;77.80;;;;;;5032862;28;20025;-81
2021/04/23 07:19:18;;;;;;;12.48;4.30;;;10.80;76.90;;;;;;5031202;28;20162;-82
2021/04/23 07:21:44;;;;;;;14.07;4.72;;;10.90;76.40;;;;;;5031108;28;20039;-82
2021/04/23 07:24:11;;;;;;;15.10;4.22;;;10.60;75.70;;;;;;5031433;28;20049;-84
2021/04/23 07:26:37;;;;;;;15.15;3.72;;;10.50;75.90;;;;;;5031732;28;20045;-85
2021/04/23 07:29:03;;;;;;;11.57;4.22;;;10.60;75.30;;;;;;5032936;28;20027;-80
2021/04/23 07:31:29;;;;;;;17.50;3.95;;;10.60;74.80;;;;;;5031088;28;20053;-83
2021/04/23 07:33:56;;;;;;;17.63;4.10;;;10.60;73.90;;;;;;5031617;28;20041;-80
2021/04/23 07:36:22;;;;;;;10.75;4.13;;;10.90;73.60;;;;;;5031399;28;20060;-86
2021/04/23 07:38:47;;;;;;;13.63;4.22;;;10.80;73.10;;;;;;5031868;28;20022;-83
2021/04/23 07:41:13;;;;;;;10.50;3.85;;;11.00;71.90;;;;;;5029677;28;20317;-81
2021/04/23 07:43:39;;;;;;;18.23;4.55;;;11.20;72.10;;;;;;5031666;28;20040;-83
2021/04/23 07:46:09;;;;;;;14.68;4.40;;;11.60;71.30;;;;;;5031454;28;20462;-86
2021/04/23 07:48:35;;;;;;;11.85;3.97;;;12.00;70.90;;;;;;5029564;28;20058;-83
2021/04/23 07:51:01;;;;;;;22.02;4.28;;;12.50;69.40;;;;;;5030521;28;20030;-79
2021/04/23 07:53:26;;;;;;;13.18;4.20;;;12.90;68.10;;;;;;5030679;28;20374;-82
2021/04/23 07:55:52;;;;;;;11.95;4.00;;;12.90;67.40;;;;;;5032187;28;20029;-82
2021/04/23 07:58:18;;;;;;;23.63;4.50;;;12.90;66.60;;;;;;5030440;28;20455;-83
2021/04/23 08:00:43;;;;;;;15.63;4.82;;;12.60;66.00;;;;;;5029494;28;20510;-83
2021/04/23 08:03:12;;;;;;;14.90;4.60;;;12.70;65.90;;;;;;5030686;28;20116;-81
2021/04/23 08:05:38;;;;;;;18.05;4.10;;;12.70;65.90;;;;;;5030270;28;20022;-80
2021/04/23 08:08:06;;;;;;;11.43;4.60;;;12.70;65.80;;;;;;5031895;28;20121;-79
2021/04/23 08:10:32;;;;;;;11.38;4.40;;;12.70;65.80;;;;;;5028818;28;20029;-77
2021/04/23 08:13:00;;;;;;;11.73;4.55;;;12.60;66.70;;;;;;5030292;28;20029;-80
2021/04/23 08:15:26;;;;;;;8.60;4.05;;;12.80;66.20;;;;;;5029838;28;20363;-78
2021/04/23 08:17:53;;;;;;;13.40;4.20;;;13.60;66.50;;;;;;5030917;28;20516;-85
2021/04/23 08:20:19;;;;;;;14.23;4.78;;;13.60;63.50;;;;;;5030377;28;20025;-82
2021/04/23 08:22:45;;;;;;;16.45;4.32;;;13.40;64.00;;;;;;5031633;28;20048;-83
2021/04/23 08:25:13;;;;;;;15.77;4.68;;;13.90;64.00;;;;;;5029988;28;20049;-85
2021/04/23 08:27:39;;;;;;;23.13;4.90;;;14.00;62.90;;;;;;5029962;28;20050;-85
2021/04/23 08:30:08;;;;;;;10.35;4.03;;;14.00;62.60;;;;;;5030151;28;20049;-88
2021/04/23 08:32:34;;;;;;;13.65;4.35;;;13.20;62.40;;;;;;5032485;28;20044;-86
2021/04/23 08:35:02;;;;;;;10.10;4.30;;;12.90;64.00;;;;;;5032953;28;20406;-88
2021/04/23 08:37:27;;;;;;;14.65;5.13;;;12.90;64.30;;;;;;5032050;28;20022;-91
2021/04/23 08:39:53;;;;;;;11.10;4.20;;;13.20;63.50;;;;;;5031442;28;20065;-90
2021/04/23 08:42:21;;;;;;;11.65;4.18;;;13.10;63.00;;;;;;5031124;28;20072;-89
2021/04/23 08:44:47;;;;;;;12.85;4.40;;;13.30;62.80;;;;;;5032062;28;20163;-89
2021/04/23 08:47:16;;;;;;;15.52;3.97;;;13.70;61.60;;;;;;5031416;28;20067;-87
2021/04/23 08:49:43;;;;;;;14.05;4.28;;;14.50;60.70;;;;;;5034097;28;20025;-91
2021/04/23 08:52:09;;;;;;;17.20;4.75;;;14.70;59.70;;;;;;5031377;28;20316;-87
2021/04/23 08:54:35;;;;;;;11.15;4.40;;;14.90;59.40;;;;;;5031186;28;20029;-90
2021/04/23 08:57:00;;;;;;;14.25;3.83;;;14.70;58.60;;;;;;5030501;28;20029;-87
2021/04/23 08:59:26;;;;;;;16.73;5.20;;;14.60;58.10;;;;;;5031785;28;20079;-91
2021/04/23 09:01:52;;;;;;;12.32;4.30;;;14.80;58.70;;;;;;5034024;28;20068;-89
2021/04/23 09:04:17;;;;;;;12.45;4.50;;;15.20;58.50;;;;;;5031043;28;20061;-85
2021/04/23 09:06:44;;;;;;;13.10;4.00;;;15.20;57.90;;;;;;5029741;28;20100;-85
2021/04/23 09:09:13;;;;;;;16.05;3.83;;;15.00;57.40;;;;;;5030257;28;20030;-86
2021/04/23 09:11:44;;;;;;;11.57;3.63;;;15.70;57.10;;;;;;5028923;28;20121;-83
2021/04/23 09:14:11;;;;;;;11.00;3.75;;;16.10;54.00;;;;;;5029361;28;20022;-84
2021/04/23 09:16:59;;;;;;;11.60;3.50;;;16.70;52.80;;;;;;5031460;28;20040;-87
2021/04/23 09:19:33;;;;;;;10.77;4.05;;;17.00;53.10;;;;;;5030426;28;20037;-88
2021/04/23 09:22:09;;;;;;;13.52;3.70;;;17.10;51.60;;;;;;5030373;28;20057;-86
2021/04/23 09:24:35;;;;;;;9.82;3.15;;;16.30;51.30;;;;;;5029379;28;20072;-86
2021/04/23 09:27:18;;;;;;;9.70;3.53;;;17.00;52.90;;;;;;5029595;28;20444;-84
2021/04/23 09:29:46;;;;;;;16.02;4.03;;;18.10;51.40;;;;;;5028704;28;20033;-86
2021/04/23 09:32:18;;;;;;;12.45;3.50;;;17.50;49.00;;;;;;5030271;28;20104;-85
2021/04/23 09:34:54;;;;;;;9.60;3.55;;;18.60;50.10;;;;;;5030584;28;20033;-87
2021/04/23 09:37:23;;;;;;;12.60;3.20;;;18.10;47.50;;;;;;5029168;28;20033;-88
2021/04/23 09:39:51;;;;;;;12.45;3.58;;;17.30;49.10;;;;;;5030914;28;20136;-87
2021/04/23 09:42:19;;;;;;;15.02;5.03;;;16.70;50.20;;;;;;5030647;28;20053;-87
2021/04/23 09:44:50;;;;;;;8.60;4.18;;;16.20;50.30;;;;;;5030300;28;20099;-87
2021/04/23 09:47:22;;;;;;;13.68;3.67;;;16.30;51.10;;;;;;5029279;28;20029;-88
2021/04/23 09:49:58;;;;;;;10.55;3.38;;;16.20;50.10;;;;;;5035298;28;20014;-83
2021/04/23 09:52:27;;;;;;;18.98;6.55;;;16.80;49.30;;;;;;5030106;28;20122;-88
2021/04/23 09:55:04;;;;;;;12.30;4.63;;;17.10;48.60;;;;;;5031139;28;20442;-86
2021/04/23 09:57:36;;;;;;;10.05;3.10;;;17.40;48.40;;;;;;5030158;28;20077;-88
2021/04/23 10:00:08;;;;;;;14.73;3.63;;;17.70;47.70;;;;;;5029304;28;20021;-84
2021/04/23 10:02:35;;;;;;;12.90;3.17;;;18.50;47.30;;;;;;5029691;28;20037;-85
2021/04/23 10:05:01;;;;;;;12.20;2.67;;;19.70;46.00;;;;;;5030370;28;20037;-85
2021/04/23 10:07:28;;;;;;;11.55;3.22;;;18.70;44.20;;;;;;5029718;28;20034;-87
2021/04/23 10:10:03;;;;;;;14.00;3.50;;;19.40;44.60;;;;;;5030120;28;20408;-89
2021/04/23 10:12:29;;;;;;;10.48;2.75;;;20.30;44.40;;;;;;5030139;28;20128;-89
2021/04/23 10:15:07;;;;;;;13.98;3.53;;;21.10;42.20;;;;;;5030119;28;20455;-89
2021/04/23 10:17:33;;;;;;;11.35;3.28;;;21.40;40.80;;;;;;5029498;28;20372;-84
2021/04/23 10:19:59;;;;;;;9.85;3.28;;;21.20;40.60;;;;;;5031315;28;20026;-86
2021/04/23 10:22:26;;;;;;;16.27;4.00;;;20.80;40.50;;;;;;5030670;28;20183;-87
2021/04/23 10:24:53;;;;;;;14.85;4.65;;;20.50;41.30;;;;;;5033010;28;20046;-89
2021/04/23 10:27:21;;;;;;;10.25;3.60;;;19.90;41.90;;;;;;5032044;28;20033;-83
2021/04/23 10:29:49;;;;;;;13.07;3.77;;;19.00;42.00;;;;;;5035673;28;20503;-83
2021/04/23 10:32:14;;;;;;;;;;;18.40;43.20;;;;;;5034661;28;20021;-83
2021/04/23 10:34:41;;;;;;;13.75;3.22;;;18.20;43.60;;;;;;5035871;28;19897;-82
2021/04/23 10:37:08;;;;;;;13.02;4.13;;;18.40;43.10;;;;;;5033443;28;20036;-82
2021/04/23 10:39:36;;;;;;;12.70;3.78;;;17.90;42.00;;;;;;5033975;28;20642;-85
2021/04/23 10:42:03;;;;;;;15.20;3.80;;;18.00;43.60;;;;;;5032918;28;20060;-82
2021/04/23 10:44:51;;;;;;;10.68;3.88;;;18.50;43.40;;;;;;5032557;28;20270;-83
2021/04/23 10:47:31;;;;;;;11.48;3.55;;;18.50;42.60;;;;;;5032454;28;20519;-83
2021/04/23 10:50:12;;;;;;;5.90;3.28;;;18.10;43.10;;;;;;5034710;28;20033;-82
2021/04/23 10:52:58;;;;;;;17.55;4.20;;;18.10;43.30;;;;;;5031312;28;20045;-83
2021/04/23 10:56:00;;;;;;;11.90;3.70;;;18.00;43.60;;;;;;5031944;28;20064;-79
2021/04/23 10:58:28;;;;;;;10.73;3.72;;;18.00;43.60;;;;;;5030741;28;20033;-84
2021/04/23 11:00:59;;;;;;;9.52;3.35;;;17.60;43.70;;;;;;5031325;28;20137;-79
2021/04/23 11:03:32;;;;;;;12.60;3.22;;;17.20;44.30;;;;;;5031590;28;20104;-80
2021/04/23 11:06:02;;;;;;;11.88;3.72;;;17.20;45.10;;;;;;5031753;28;20093;-78
2021/04/23 11:08:31;;;;;;;15.77;3.55;;;17.00;44.80;;;;;;5031456;28;20451;-76
2021/04/23 11:11:00;;;;;;;9.00;3.90;;;16.90;44.10;;;;;;5032994;28;20022;-77
2021/04/23 11:13:26;;;;;;;18.15;4.38;;;16.60;44.40;;;;;;5031572;28;20116;-80
2021/04/23 11:16:23;;;;;;;18.45;5.68;;;16.40;44.50;;;;;;5031371;28;20029;-84
2021/04/23 11:18:56;;;;;;;11.63;3.73;;;15.80;45.70;;;;;;5030186;28;20409;-81
2021/04/23 11:24:08;;;;;;;11.13;3.83;;;16.70;44.90;;;;;;5030605;28;20079;-82
2021/04/23 11:26:52;;;;;;;14.82;3.92;;;16.10;44.00;;;;;;5031118;28;20037;-78
2021/04/23 11:29:30;;;;;;;16.25;4.38;;;16.10;44.70;;;;;;5031013;28;20025;-80
2021/04/23 11:32:19;;;;;;;11.85;4.35;;;16.40;45.00;;;;;;5033489;28;20022;-90
2021/04/23 11:34:54;;;;;;;9.70;3.80;;;16.50;44.60;;;;;;5031117;28;20071;-83
2021/04/23 11:37:28;;;;;;;8.07;3.45;;;16.50;45.00;;;;;;5031677;28;20068;-86
2021/04/23 11:40:21;;;;;;;17.58;6.43;;;16.40;45.10;;;;;;5030722;28;20489;-83
2021/04/23 11:43:02;;;;;;;15.55;3.83;;;16.30;45.70;;;;;;5031216;28;20116;-85
2021/04/23 11:45:33;;;;;;;12.93;3.80;;;16.40;45.30;;;;;;5030783;28;20538;-80
2021/04/23 11:48:09;;;;;;;15.93;6.45;;;16.40;45.30;;;;;;5030493;28;20095;-81
2021/04/23 11:50:41;;;;;;;11.57;3.47;;;16.00;44.50;;;;;;5029895;28;20103;-83
2021/04/23 11:53:08;;;;;;;15.70;4.00;;;16.10;44.60;;;;;;5032322;28;20035;-81
2021/04/23 11:55:36;;;;;;;6.88;3.30;;;16.50;44.20;;;;;;5030120;28;20030;-79
2021/04/23 11:58:09;;;;;;;16.98;4.30;;;16.70;44.00;;;;;;5030922;28;20077;-84
2021/04/23 12:00:38;;;;;;;11.98;3.72;;;16.70;44.50;;;;;;5030023;28;20039;-83
2021/04/23 12:03:09;;;;;;;8.57;4.00;;;16.30;44.80;;;;;;5030569;28;20025;-83
2021/04/23 12:05:38;;;;;;;9.77;3.47;;;16.20;45.50;;;;;;5029274;28;20125;-82
2021/04/23 12:08:22;;;;;;;14.10;3.25;;;16.50;45.00;;;;;;5031780;28;20439;-81
2021/04/23 12:10:55;;;;;;;12.52;3.80;;;16.70;44.40;;;;;;5025327;28;20044;-84
2021/04/23 12:13:39;;;;;;;16.80;3.63;;;16.80;43.20;;;;;;5029410;28;20037;-84
2021/04/23 12:16:10;;;;;;;16.75;3.63;;;16.80;43.20;;;;;;5030710;28;20407;-83
2021/04/23 12:18:45;;;;;;;10.10;4.10;;;16.50;43.40;;;;;;5032844;28;20120;-89
2021/04/23 12:21:12;;;;;;;13.90;3.80;;;16.10;44.20;;;;;;5033805;28;20132;-86
2021/04/23 12:23:39;;;;;;;8.90;3.97;;;16.20;44.60;;;;;;5029925;28;20049;-86
2021/04/23 12:26:07;;;;;;;12.15;3.88;;;16.20;45.00;;;;;;5032517;28;20037;-83
2021/04/23 12:28:33;;;;;;;14.00;3.50;;;16.40;45.50;;;;;;5030913;28;20036;-88
2021/04/23 12:31:10;;;;;;;12.13;4.07;;;16.30;45.30;;;;;;5029224;28;20125;-81
2021/04/23 12:33:53;;;;;;;10.23;3.17;;;16.40;45.40;;;;;;5028079;28;20059;-80
2021/04/23 12:36:19;;;;;;;12.32;4.13;;;16.50;45.60;;;;;;5029976;28;20498;-82
2021/04/23 12:38:50;;;;;;;16.58;4.53;;;16.40;45.60;;;;;;5028997;28;20117;-83
2021/04/23 12:41:23;;;;;;;16.00;7.00;;;16.30;45.40;;;;;;5030253;28;20451;-88
2021/04/23 12:43:50;;;;;;;17.75;5.05;;;16.40;45.00;;;;;;5031242;28;20033;-81
2021/04/23 12:46:23;;;;;;;11.05;3.40;;;16.40;44.50;;;;;;5029885;28;20407;-84
2021/04/23 12:49:13;;;;;;;14.85;3.45;;;16.30;44.10;;;;;;5030602;28;20037;-84
2021/04/23 12:51:46;;;;;;;11.23;3.40;;;16.40;43.80;;;;;;5029599;28;20025;-83
2021/04/23 12:54:14;;;;;;;9.90;3.35;;;16.40;43.70;;;;;;5030210;28;20134;-85
2021/04/23 12:56:41;;;;;;;18.63;7.17;;;16.10;43.80;;;;;;5030660;28;20108;-83